sensor_id;sensor_type;location;lat;lon;timestamp;P1;durP1;ratioP1;P2;durP2;ratioP2
16822;SDS011;8528;49.976;11.858;2023-06-05T00:01:00;2.57;;;1.90;;
16822;SDS011;8528;49.976;11.858;2023-06-05T00:03:27;1.77;;;1.67;;
16822;SDS011;8528;49.976;11.858;2023-06-05T00:05:54;3.80;;;2.10;;
16822;SDS011;8528;49.976;11.858;2023-06-05T00:08:21;10.63;;;9.57;;
16822;SDS011;8528;49.976;11.858;2023-06-05T00:10:48;4.03;;;2.80;;
16822;SDS011;8528;49.976;11.858;2023-06-05T00:13:15;3.13;;;2.13;;
16822;SDS011;8528;49.976;11.858;2023-06-05T00:15:42;2.90;;;1.90;;
16822;SDS011;8528;49.976;11.858;2023-06-05T00:18:09;2.10;;;1.90;;
16822;SDS011;8528;49.976;11.858;2023-06-05T00:20:36;3.43;;;2.50;;
16822;SDS011;8528;49.976;11.858;2023-06-05T00:23:03;2.53;;;2.13;;
16822;SDS011;8528;49.976;11.858;2023-06-05T00:25:30;2.83;;;2.13;;
16822;SDS011;8528;49.976;11.858;2023-06-05T00:27:57;2.20;;;2.00;;
16822;SDS011;8528;49.976;11.858;2023-06-05T00:30:24;3.27;;;1.83;;
16822;SDS011;8528;49.976;11.858;2023-06-05T00:32:51;3.53;;;1.93;;
16822;SDS011;8528;49.976;11.858;2023-06-05T00:35:18;3.40;;;1.90;;
16822;SDS011;8528;49.976;11.858;2023-06-05T00:37:47;2.40;;;2.00;;
16822;SDS011;8528;49.976;11.858;2023-06-05T00:40:14;2.17;;;1.97;;
16822;SDS011;8528;49.976;11.858;2023-06-05T00:42:41;2.03;;;1.80;;
16822;SDS011;8528;49.976;11.858;2023-06-05T00:45:08;2.23;;;1.97;;
16822;SDS011;8528;49.976;11.858;2023-06-05T00:47:35;4.07;;;2.00;;
16822;SDS011;8528;49.976;11.858;2023-06-05T00:50:02;3.73;;;1.97;;
16822;SDS011;8528;49.976;11.858;2023-06-05T00:52:30;2.10;;;1.90;;
16822;SDS011;8528;49.976;11.858;2023-06-05T00:54:58;2.60;;;1.63;;
16822;SDS011;8528;49.976;11.858;2023-06-05T00:57:26;2.50;;;2.00;;
16822;SDS011;8528;49.976;11.858;2023-06-05T00:59:54;1.90;;;1.70;;
16822;SDS011;8528;49.976;11.858;2023-06-05T01:02:21;2.20;;;1.90;;
16822;SDS011;8528;49.976;11.858;2023-06-05T01:04:48;2.00;;;1.87;;
16822;SDS011;8528;49.976;11.858;2023-06-05T01:07:15;4.10;;;2.30;;
16822;SDS011;8528;49.976;11.858;2023-06-05T01:09:43;2.17;;;1.93;;
16822;SDS011;8528;49.976;11.858;2023-06-05T01:14:50;6.43;;;2.10;;
16822;SDS011;8528;49.976;11.858;2023-06-05T01:17:25;2.80;;;1.97;;
16822;SDS011;8528;49.976;11.858;2023-06-05T01:19:55;2.80;;;2.00;;
16822;SDS011;8528;49.976;11.858;2023-06-05T01:22:27;3.00;;;1.87;;
16822;SDS011;8528;49.976;11.858;2023-06-05T01:24:54;2.70;;;1.80;;
16822;SDS011;8528;49.976;11.858;2023-06-05T01:30:37;2.67;;;2.07;;
16822;SDS011;8528;49.976;11.858;2023-06-05T01:33:15;1.67;;;1.57;;
16822;SDS011;8528;49.976;11.858;2023-06-05T01:35:46;2.13;;;1.97;;
16822;SDS011;8528;49.976;11.858;2023-06-05T01:38:18;2.83;;;1.90;;
16822;SDS011;8528;49.976;11.858;2023-06-05T01:40:47;1.70;;;1.60;;
16822;SDS011;8528;49.976;11.858;2023-06-05T01:43:16;1.97;;;1.80;;
16822;SDS011;8528;49.976;11.858;2023-06-05T01:45:44;3.10;;;2.17;;
16822;SDS011;8528;49.976;11.858;2023-06-05T01:48:12;2.57;;;2.10;;
16822;SDS011;8528;49.976;11.858;2023-06-05T01:50:40;2.47;;;1.77;;
16822;SDS011;8528;49.976;11.858;2023-06-05T01:53:08;3.00;;;1.90;;
16822;SDS011;8528;49.976;11.858;2023-06-05T01:55:38;2.57;;;2.10;;
16822;SDS011;8528;49.976;11.858;2023-06-05T01:58:07;2.10;;;1.93;;
16822;SDS011;8528;49.976;11.858;2023-06-05T02:00:34;2.23;;;1.67;;
16822;SDS011;8528;49.976;11.858;2023-06-05T02:03:02;2.50;;;2.30;;
16822;SDS011;8528;49.976;11.858;2023-06-05T02:05:30;2.40;;;2.10;;
16822;SDS011;8528;49.976;11.858;2023-06-05T02:07:58;4.87;;;2.00;;
16822;SDS011;8528;49.976;11.858;2023-06-05T02:10:25;4.43;;;2.20;;
16822;SDS011;8528;49.976;11.858;2023-06-05T02:12:52;2.70;;;2.40;;
16822;SDS011;8528;49.976;11.858;2023-06-05T02:15:19;3.23;;;2.20;;
16822;SDS011;8528;49.976;11.858;2023-06-05T02:17:46;2.33;;;2.03;;
16822;SDS011;8528;49.976;11.858;2023-06-05T02:20:24;5.40;;;1.80;;
16822;SDS011;8528;49.976;11.858;2023-06-05T02:22:51;6.17;;;3.77;;
16822;SDS011;8528;49.976;11.858;2023-06-05T02:25:18;6.70;;;6.10;;
16822;SDS011;8528;49.976;11.858;2023-06-05T02:27:47;5.97;;;2.80;;
16822;SDS011;8528;49.976;11.858;2023-06-05T02:30:14;2.83;;;2.27;;
16822;SDS011;8528;49.976;11.858;2023-06-05T02:32:41;22.97;;;16.63;;
16822;SDS011;8528;49.976;11.858;2023-06-05T02:35:10;8.13;;;5.70;;
16822;SDS011;8528;49.976;11.858;2023-06-05T02:37:38;7.10;;;6.00;;
16822;SDS011;8528;49.976;11.858;2023-06-05T02:40:10;9.03;;;7.30;;
16822;SDS011;8528;49.976;11.858;2023-06-05T02:42:38;7.90;;;6.53;;
16822;SDS011;8528;49.976;11.858;2023-06-05T02:45:07;7.23;;;4.00;;
16822;SDS011;8528;49.976;11.858;2023-06-05T02:47:34;5.83;;;2.53;;
16822;SDS011;8528;49.976;11.858;2023-06-05T02:50:02;3.27;;;2.27;;
16822;SDS011;8528;49.976;11.858;2023-06-05T02:52:29;5.10;;;2.93;;
16822;SDS011;8528;49.976;11.858;2023-06-05T02:55:01;5.70;;;2.30;;
16822;SDS011;8528;49.976;11.858;2023-06-05T02:57:31;2.63;;;2.40;;
16822;SDS011;8528;49.976;11.858;2023-06-05T02:59:59;3.00;;;2.33;;
16822;SDS011;8528;49.976;11.858;2023-06-05T03:02:34;3.10;;;1.90;;
16822;SDS011;8528;49.976;11.858;2023-06-05T03:05:03;2.00;;;1.80;;
16822;SDS011;8528;49.976;11.858;2023-06-05T03:07:30;3.50;;;2.27;;
16822;SDS011;8528;49.976;11.858;2023-06-05T03:10:00;2.43;;;2.03;;
16822;SDS011;8528;49.976;11.858;2023-06-05T03:12:27;2.47;;;1.80;;
16822;SDS011;8528;49.976;11.858;2023-06-05T03:14:54;2.00;;;1.80;;
16822;SDS011;8528;49.976;11.858;2023-06-05T03:17:21;2.30;;;1.80;;
16822;SDS011;8528;49.976;11.858;2023-06-05T03:19:49;2.10;;;1.90;;
16822;SDS011;8528;49.976;11.858;2023-06-05T03:22:17;2.67;;;1.90;;
16822;SDS011;8528;49.976;11.858;2023-06-05T03:24:45;6.20;;;2.40;;
16822;SDS011;8528;49.976;11.858;2023-06-05T03:27:12;2.97;;;2.50;;
16822;SDS011;8528;49.976;11.858;2023-06-05T03:29:39;2.93;;;2.30;;
16822;SDS011;8528;49.976;11.858;2023-06-05T03:32:05;2.60;;;2.00;;
16822;SDS011;8528;49.976;11.858;2023-06-05T03:34:32;2.50;;;2.17;;
16822;SDS011;8528;49.976;11.858;2023-06-05T03:37:03;2.50;;;2.00;;
16822;SDS011;8528;49.976;11.858;2023-06-05T03:39:30;2.40;;;2.20;;
16822;SDS011;8528;49.976;11.858;2023-06-05T03:41:57;3.13;;;2.00;;
16822;SDS011;8528;49.976;11.858;2023-06-05T03:44:24;2.90;;;2.50;;
16822;SDS011;8528;49.976;11.858;2023-06-05T03:46:51;4.63;;;3.27;;
16822;SDS011;8528;49.976;11.858;2023-06-05T03:49:18;3.30;;;2.93;;
16822;SDS011;8528;49.976;11.858;2023-06-05T03:51:47;3.63;;;2.40;;
16822;SDS011;8528;49.976;11.858;2023-06-05T03:54:14;2.20;;;2.00;;
16822;SDS011;8528;49.976;11.858;2023-06-05T03:56:43;2.80;;;2.03;;
16822;SDS011;8528;49.976;11.858;2023-06-05T03:59:17;2.20;;;2.00;;
16822;SDS011;8528;49.976;11.858;2023-06-05T04:01:48;2.93;;;2.43;;
16822;SDS011;8528;49.976;11.858;2023-06-05T04:04:16;3.93;;;2.40;;
16822;SDS011;8528;49.976;11.858;2023-06-05T04:06:43;2.53;;;2.03;;
16822;SDS011;8528;49.976;11.858;2023-06-05T04:09:10;2.77;;;2.20;;
16822;SDS011;8528;49.976;11.858;2023-06-05T04:11:42;2.00;;;1.80;;
16822;SDS011;8528;49.976;11.858;2023-06-05T04:14:10;3.57;;;2.10;;
16822;SDS011;8528;49.976;11.858;2023-06-05T04:16:38;2.97;;;2.03;;
16822;SDS011;8528;49.976;11.858;2023-06-05T04:19:06;2.30;;;2.10;;
16822;SDS011;8528;49.976;11.858;2023-06-05T04:21:33;5.50;;;2.30;;
16822;SDS011;8528;49.976;11.858;2023-06-05T04:24:05;2.97;;;2.33;;
16822;SDS011;8528;49.976;11.858;2023-06-05T04:26:38;2.40;;;2.20;;
16822;SDS011;8528;49.976;11.858;2023-06-05T04:29:08;3.43;;;2.37;;
16822;SDS011;8528;49.976;11.858;2023-06-05T04:31:42;5.47;;;2.33;;
16822;SDS011;8528;49.976;11.858;2023-06-05T04:34:09;3.63;;;2.30;;
16822;SDS011;8528;49.976;11.858;2023-06-05T04:36:37;5.33;;;2.60;;
16822;SDS011;8528;49.976;11.858;2023-06-05T04:39:04;9.87;;;3.17;;
16822;SDS011;8528;49.976;11.858;2023-06-05T04:41:33;6.53;;;2.60;;
16822;SDS011;8528;49.976;11.858;2023-06-05T04:44:02;5.00;;;2.50;;
16822;SDS011;8528;49.976;11.858;2023-06-05T04:46:29;5.30;;;2.47;;
16822;SDS011;8528;49.976;11.858;2023-06-05T04:48:56;6.70;;;2.30;;
16822;SDS011;8528;49.976;11.858;2023-06-05T04:51:24;6.97;;;2.60;;
16822;SDS011;8528;49.976;11.858;2023-06-05T04:53:51;6.13;;;2.53;;
16822;SDS011;8528;49.976;11.858;2023-06-05T04:56:19;3.93;;;2.40;;
16822;SDS011;8528;49.976;11.858;2023-06-05T04:58:49;7.07;;;3.50;;
16822;SDS011;8528;49.976;11.858;2023-06-05T05:01:18;6.80;;;3.00;;
16822;SDS011;8528;49.976;11.858;2023-06-05T05:03:46;3.80;;;2.63;;
16822;SDS011;8528;49.976;11.858;2023-06-05T05:06:14;2.93;;;2.53;;
16822;SDS011;8528;49.976;11.858;2023-06-05T05:08:43;3.23;;;2.23;;
16822;SDS011;8528;49.976;11.858;2023-06-05T05:11:12;8.93;;;4.83;;
16822;SDS011;8528;49.976;11.858;2023-06-05T05:13:39;14.33;;;9.23;;
16822;SDS011;8528;49.976;11.858;2023-06-05T05:16:06;15.50;;;10.77;;
16822;SDS011;8528;49.976;11.858;2023-06-05T05:18:34;19.27;;;13.97;;
16822;SDS011;8528;49.976;11.858;2023-06-05T05:21:03;21.23;;;13.20;;
16822;SDS011;8528;49.976;11.858;2023-06-05T05:23:32;33.53;;;27.73;;
16822;SDS011;8528;49.976;11.858;2023-06-05T05:25:59;31.93;;;26.43;;
16822;SDS011;8528;49.976;11.858;2023-06-05T05:28:27;17.97;;;15.80;;
16822;SDS011;8528;49.976;11.858;2023-06-05T05:30:55;18.37;;;14.13;;
16822;SDS011;8528;49.976;11.858;2023-06-05T05:33:24;66.13;;;56.93;;
16822;SDS011;8528;49.976;11.858;2023-06-05T05:35:51;27.37;;;24.40;;
16822;SDS011;8528;49.976;11.858;2023-06-05T05:38:18;26.50;;;23.00;;
16822;SDS011;8528;49.976;11.858;2023-06-05T05:40:45;11.63;;;9.83;;
16822;SDS011;8528;49.976;11.858;2023-06-05T05:43:11;55.23;;;47.83;;
16822;SDS011;8528;49.976;11.858;2023-06-05T05:45:38;22.07;;;17.87;;
16822;SDS011;8528;49.976;11.858;2023-06-05T05:48:07;11.20;;;9.60;;
16822;SDS011;8528;49.976;11.858;2023-06-05T05:50:34;13.17;;;8.40;;
16822;SDS011;8528;49.976;11.858;2023-06-05T05:53:01;11.17;;;7.77;;
16822;SDS011;8528;49.976;11.858;2023-06-05T05:55:28;7.40;;;6.70;;
16822;SDS011;8528;49.976;11.858;2023-06-05T05:57:55;5.80;;;3.77;;
16822;SDS011;8528;49.976;11.858;2023-06-05T06:00:22;3.90;;;2.90;;
16822;SDS011;8528;49.976;11.858;2023-06-05T06:02:49;2.50;;;2.10;;
16822;SDS011;8528;49.976;11.858;2023-06-05T06:05:17;10.93;;;3.80;;
16822;SDS011;8528;49.976;11.858;2023-06-05T06:07:44;3.77;;;2.27;;
16822;SDS011;8528;49.976;11.858;2023-06-05T06:10:11;2.53;;;2.33;;
16822;SDS011;8528;49.976;11.858;2023-06-05T06:12:39;4.60;;;2.77;;
16822;SDS011;8528;49.976;11.858;2023-06-05T06:15:07;2.87;;;2.40;;
16822;SDS011;8528;49.976;11.858;2023-06-05T06:17:34;2.53;;;2.27;;
16822;SDS011;8528;49.976;11.858;2023-06-05T06:20:02;2.13;;;1.93;;
16822;SDS011;8528;49.976;11.858;2023-06-05T06:22:29;3.67;;;2.20;;
16822;SDS011;8528;49.976;11.858;2023-06-05T06:24:56;10.02;;;2.63;;
16822;SDS011;8528;49.976;11.858;2023-06-05T06:27:23;5.55;;;2.70;;
16822;SDS011;8528;49.976;11.858;2023-06-05T06:29:53;5.25;;;2.55;;
16822;SDS011;8528;49.976;11.858;2023-06-05T06:32:20;2.83;;;2.30;;
16822;SDS011;8528;49.976;11.858;2023-06-05T06:34:48;2.42;;;2.20;;
16822;SDS011;8528;49.976;11.858;2023-06-05T06:37:15;3.45;;;2.35;;
16822;SDS011;8528;49.976;11.858;2023-06-05T06:39:43;3.03;;;2.33;;
16822;SDS011;8528;49.976;11.858;2023-06-05T06:42:10;3.88;;;2.22;;
16822;SDS011;8528;49.976;11.858;2023-06-05T06:44:38;5.00;;;2.53;;
16822;SDS011;8528;49.976;11.858;2023-06-05T06:47:05;5.55;;;2.30;;
16822;SDS011;8528;49.976;11.858;2023-06-05T06:49:33;5.18;;;2.28;;
16822;SDS011;8528;49.976;11.858;2023-06-05T06:52:01;3.80;;;2.78;;
16822;SDS011;8528;49.976;11.858;2023-06-05T06:54:28;10.75;;;3.67;;
16822;SDS011;8528;49.976;11.858;2023-06-05T06:56:55;2.88;;;2.30;;
16822;SDS011;8528;49.976;11.858;2023-06-05T06:59:23;4.30;;;2.53;;
16822;SDS011;8528;49.976;11.858;2023-06-05T07:04:55;3.35;;;2.50;;
16822;SDS011;8528;49.976;11.858;2023-06-05T07:07:23;5.07;;;3.80;;
16822;SDS011;8528;49.976;11.858;2023-06-05T07:09:50;7.25;;;3.60;;
16822;SDS011;8528;49.976;11.858;2023-06-05T07:12:17;7.20;;;4.03;;
16822;SDS011;8528;49.976;11.858;2023-06-05T07:14:46;12.55;;;3.53;;
16822;SDS011;8528;49.976;11.858;2023-06-05T07:17:14;4.47;;;2.72;;
16822;SDS011;8528;49.976;11.858;2023-06-05T07:19:41;2.70;;;2.50;;
16822;SDS011;8528;49.976;11.858;2023-06-05T07:22:08;4.75;;;2.80;;
16822;SDS011;8528;49.976;11.858;2023-06-05T07:24:35;29.98;;;5.22;;
16822;SDS011;8528;49.976;11.858;2023-06-05T07:27:04;4.25;;;2.47;;
16822;SDS011;8528;49.976;11.858;2023-06-05T07:29:31;3.15;;;2.65;;
16822;SDS011;8528;49.976;11.858;2023-06-05T07:31:58;4.32;;;2.70;;
16822;SDS011;8528;49.976;11.858;2023-06-05T07:34:26;4.03;;;3.05;;
16822;SDS011;8528;49.976;11.858;2023-06-05T07:36:53;3.00;;;2.70;;
16822;SDS011;8528;49.976;11.858;2023-06-05T07:39:21;5.20;;;2.40;;
16822;SDS011;8528;49.976;11.858;2023-06-05T07:41:49;3.00;;;2.30;;
16822;SDS011;8528;49.976;11.858;2023-06-05T07:44:16;2.88;;;2.65;;
16822;SDS011;8528;49.976;11.858;2023-06-05T07:46:45;4.55;;;2.72;;
16822;SDS011;8528;49.976;11.858;2023-06-05T07:49:13;4.97;;;2.53;;
16822;SDS011;8528;49.976;11.858;2023-06-05T07:51:42;2.90;;;2.60;;
16822;SDS011;8528;49.976;11.858;2023-06-05T07:54:11;4.75;;;2.85;;
16822;SDS011;8528;49.976;11.858;2023-06-05T07:56:39;3.10;;;2.80;;
16822;SDS011;8528;49.976;11.858;2023-06-05T07:59:06;7.55;;;3.47;;
16822;SDS011;8528;49.976;11.858;2023-06-05T08:01:34;5.95;;;3.70;;
16822;SDS011;8528;49.976;11.858;2023-06-05T08:04:03;4.30;;;3.20;;
16822;SDS011;8528;49.976;11.858;2023-06-05T08:06:31;3.55;;;3.13;;
16822;SDS011;8528;49.976;11.858;2023-06-05T08:09:00;5.45;;;3.53;;
16822;SDS011;8528;49.976;11.858;2023-06-05T08:11:28;11.32;;;4.00;;
16822;SDS011;8528;49.976;11.858;2023-06-05T08:13:55;8.55;;;3.60;;
16822;SDS011;8528;49.976;11.858;2023-06-05T08:16:22;4.22;;;3.42;;
16822;SDS011;8528;49.976;11.858;2023-06-05T08:18:49;5.18;;;3.10;;
16822;SDS011;8528;49.976;11.858;2023-06-05T08:21:15;7.40;;;3.03;;
16822;SDS011;8528;49.976;11.858;2023-06-05T08:23:43;5.95;;;3.45;;
16822;SDS011;8528;49.976;11.858;2023-06-05T08:26:10;3.30;;;3.00;;
16822;SDS011;8528;49.976;11.858;2023-06-05T08:28:38;11.88;;;3.90;;
16822;SDS011;8528;49.976;11.858;2023-06-05T08:31:08;6.47;;;3.70;;
16822;SDS011;8528;49.976;11.858;2023-06-05T08:33:36;5.50;;;4.03;;
16822;SDS011;8528;49.976;11.858;2023-06-05T08:36:04;5.15;;;3.83;;
16822;SDS011;8528;49.976;11.858;2023-06-05T08:38:32;6.68;;;3.75;;
16822;SDS011;8528;49.976;11.858;2023-06-05T08:41:00;4.65;;;3.67;;
16822;SDS011;8528;49.976;11.858;2023-06-05T08:43:37;8.20;;;3.40;;
16822;SDS011;8528;49.976;11.858;2023-06-05T08:46:06;5.63;;;3.58;;
16822;SDS011;8528;49.976;11.858;2023-06-05T08:48:37;5.88;;;3.65;;
16822;SDS011;8528;49.976;11.858;2023-06-05T08:51:24;8.63;;;4.05;;
16822;SDS011;8528;49.976;11.858;2023-06-05T08:53:52;5.57;;;3.20;;
16822;SDS011;8528;49.976;11.858;2023-06-05T08:56:26;5.93;;;4.00;;
16822;SDS011;8528;49.976;11.858;2023-06-05T08:58:54;5.63;;;3.65;;
16822;SDS011;8528;49.976;11.858;2023-06-05T09:01:21;4.03;;;3.72;;
16822;SDS011;8528;49.976;11.858;2023-06-05T09:07:36;4.47;;;4.00;;
16822;SDS011;8528;49.976;11.858;2023-06-05T09:10:04;6.47;;;3.67;;
16822;SDS011;8528;49.976;11.858;2023-06-05T09:12:32;4.43;;;4.03;;
16822;SDS011;8528;49.976;11.858;2023-06-05T09:15:21;6.67;;;3.63;;
16822;SDS011;8528;49.976;11.858;2023-06-05T09:18:12;4.80;;;3.80;;
16822;SDS011;8528;49.976;11.858;2023-06-05T09:20:39;9.10;;;4.10;;
16822;SDS011;8528;49.976;11.858;2023-06-05T09:26:08;10.03;;;3.70;;
16822;SDS011;8528;49.976;11.858;2023-06-05T09:28:59;6.10;;;3.90;;
16822;SDS011;8528;49.976;11.858;2023-06-05T09:31:33;4.67;;;3.80;;
16822;SDS011;8528;49.976;11.858;2023-06-05T09:34:07;4.60;;;3.87;;
16822;SDS011;8528;49.976;11.858;2023-06-05T09:36:36;6.97;;;3.90;;
16822;SDS011;8528;49.976;11.858;2023-06-05T09:39:15;5.93;;;4.20;;
16822;SDS011;8528;49.976;11.858;2023-06-05T09:41:42;4.90;;;3.70;;
16822;SDS011;8528;49.976;11.858;2023-06-05T09:44:13;7.13;;;3.60;;
16822;SDS011;8528;49.976;11.858;2023-06-05T09:49:28;4.55;;;3.97;;
16822;SDS011;8528;49.976;11.858;2023-06-05T09:52:00;8.43;;;3.70;;
16822;SDS011;8528;49.976;11.858;2023-06-05T09:54:28;4.88;;;3.53;;
16822;SDS011;8528;49.976;11.858;2023-06-05T09:56:56;5.07;;;3.80;;
16822;SDS011;8528;49.976;11.858;2023-06-05T09:59:28;6.67;;;3.83;;
16822;SDS011;8528;49.976;11.858;2023-06-05T10:02:00;11.33;;;4.67;;
16822;SDS011;8528;49.976;11.858;2023-06-05T10:04:37;4.47;;;3.63;;
16822;SDS011;8528;49.976;11.858;2023-06-05T10:07:08;4.77;;;3.70;;
16822;SDS011;8528;49.976;11.858;2023-06-05T10:09:35;3.63;;;3.30;;
16822;SDS011;8528;49.976;11.858;2023-06-05T10:12:03;5.37;;;3.87;;
16822;SDS011;8528;49.976;11.858;2023-06-05T10:14:31;5.27;;;3.73;;
16822;SDS011;8528;49.976;11.858;2023-06-05T10:16:58;7.60;;;6.00;;
16822;SDS011;8528;49.976;11.858;2023-06-05T10:19:26;5.00;;;4.10;;
16822;SDS011;8528;49.976;11.858;2023-06-05T10:21:53;4.37;;;3.97;;
16822;SDS011;8528;49.976;11.858;2023-06-05T10:32:18;6.97;;;4.37;;
16822;SDS011;8528;49.976;11.858;2023-06-05T10:40:34;5.00;;;3.63;;
16822;SDS011;8528;49.976;11.858;2023-06-05T10:44:02;4.82;;;3.92;;
16822;SDS011;8528;49.976;11.858;2023-06-05T10:46:00;5.47;;;4.27;;
16822;SDS011;8528;49.976;11.858;2023-06-05T10:54:05;6.20;;;3.97;;
16822;SDS011;8528;49.976;11.858;2023-06-05T11:07:24;9.23;;;4.20;;
16822;SDS011;8528;49.976;11.858;2023-06-05T11:12:52;4.43;;;4.03;;
16822;SDS011;8528;49.976;11.858;2023-06-05T11:17:55;4.10;;;3.60;;
16822;SDS011;8528;49.976;11.858;2023-06-05T11:27:56;7.83;;;4.47;;
16822;SDS011;8528;49.976;11.858;2023-06-05T11:30:26;6.13;;;4.30;;
16822;SDS011;8528;49.976;11.858;2023-06-05T11:33:15;5.97;;;4.50;;
16822;SDS011;8528;49.976;11.858;2023-06-05T11:35:44;12.83;;;5.03;;
16822;SDS011;8528;49.976;11.858;2023-06-05T11:38:14;8.57;;;4.50;;
16822;SDS011;8528;49.976;11.858;2023-06-05T11:40:45;8.53;;;4.40;;
16822;SDS011;8528;49.976;11.858;2023-06-05T11:43:12;6.20;;;4.13;;
16822;SDS011;8528;49.976;11.858;2023-06-05T11:45:41;4.43;;;4.03;;
16822;SDS011;8528;49.976;11.858;2023-06-05T11:50:37;8.27;;;4.10;;
16822;SDS011;8528;49.976;11.858;2023-06-05T11:53:06;5.43;;;4.00;;
16822;SDS011;8528;49.976;11.858;2023-06-05T11:55:34;4.90;;;4.13;;
16822;SDS011;8528;49.976;11.858;2023-06-05T11:58:20;4.40;;;4.00;;
16822;SDS011;8528;49.976;11.858;2023-06-05T12:03:49;5.37;;;3.50;;
16822;SDS011;8528;49.976;11.858;2023-06-05T12:06:30;4.73;;;3.93;;
16822;SDS011;8528;49.976;11.858;2023-06-05T12:09:09;5.73;;;4.30;;
16822;SDS011;8528;49.976;11.858;2023-06-05T12:11:38;5.70;;;3.77;;
16822;SDS011;8528;49.976;11.858;2023-06-05T12:14:06;4.43;;;4.00;;
16822;SDS011;8528;49.976;11.858;2023-06-05T12:16:33;7.53;;;4.37;;
16822;SDS011;8528;49.976;11.858;2023-06-05T12:19:01;9.20;;;4.60;;
16822;SDS011;8528;49.976;11.858;2023-06-05T12:21:41;9.97;;;4.53;;
16822;SDS011;8528;49.976;11.858;2023-06-05T12:24:09;7.40;;;3.80;;
16822;SDS011;8528;49.976;11.858;2023-06-05T12:26:48;7.93;;;4.10;;
16822;SDS011;8528;49.976;11.858;2023-06-05T12:29:25;4.60;;;4.17;;
16822;SDS011;8528;49.976;11.858;2023-06-05T12:31:57;5.73;;;4.43;;
16822;SDS011;8528;49.976;11.858;2023-06-05T12:37:26;5.00;;;4.50;;
16822;SDS011;8528;49.976;11.858;2023-06-05T12:40:05;5.87;;;4.20;;
16822;SDS011;8528;49.976;11.858;2023-06-05T12:42:38;4.40;;;4.00;;
16822;SDS011;8528;49.976;11.858;2023-06-05T12:45:08;9.43;;;4.40;;
16822;SDS011;8528;49.976;11.858;2023-06-05T12:47:36;5.50;;;4.67;;
16822;SDS011;8528;49.976;11.858;2023-06-05T12:50:04;6.30;;;4.07;;
16822;SDS011;8528;49.976;11.858;2023-06-05T12:52:32;6.23;;;4.10;;
16822;SDS011;8528;49.976;11.858;2023-06-05T12:55:00;6.30;;;3.60;;
16822;SDS011;8528;49.976;11.858;2023-06-05T12:57:27;8.07;;;4.63;;
16822;SDS011;8528;49.976;11.858;2023-06-05T13:00:07;4.50;;;4.10;;
16822;SDS011;8528;49.976;11.858;2023-06-05T13:02:37;5.20;;;4.10;;
16822;SDS011;8528;49.976;11.858;2023-06-05T13:05:04;6.67;;;3.93;;
16822;SDS011;8528;49.976;11.858;2023-06-05T13:07:33;4.40;;;3.63;;
16822;SDS011;8528;49.976;11.858;2023-06-05T13:09:59;7.63;;;4.00;;
16822;SDS011;8528;49.976;11.858;2023-06-05T13:12:26;6.47;;;4.10;;
16822;SDS011;8528;49.976;11.858;2023-06-05T13:14:53;6.30;;;4.27;;
16822;SDS011;8528;49.976;11.858;2023-06-05T13:17:20;5.90;;;3.80;;
16822;SDS011;8528;49.976;11.858;2023-06-05T13:19:47;5.70;;;3.90;;
16822;SDS011;8528;49.976;11.858;2023-06-05T13:22:14;4.67;;;3.93;;
16822;SDS011;8528;49.976;11.858;2023-06-05T13:24:43;8.47;;;4.33;;
16822;SDS011;8528;49.976;11.858;2023-06-05T13:27:11;5.17;;;4.10;;
16822;SDS011;8528;49.976;11.858;2023-06-05T13:29:38;4.97;;;3.70;;
16822;SDS011;8528;49.976;11.858;2023-06-05T13:32:05;5.73;;;3.67;;
16822;SDS011;8528;49.976;11.858;2023-06-05T13:34:32;4.80;;;3.83;;
16822;SDS011;8528;49.976;11.858;2023-06-05T13:36:59;7.57;;;4.17;;
16822;SDS011;8528;49.976;11.858;2023-06-05T13:39:39;5.43;;;4.00;;
16822;SDS011;8528;49.976;11.858;2023-06-05T13:42:06;8.43;;;4.27;;
16822;SDS011;8528;49.976;11.858;2023-06-05T13:44:33;5.60;;;4.00;;
16822;SDS011;8528;49.976;11.858;2023-06-05T13:47:00;18.13;;;4.97;;
16822;SDS011;8528;49.976;11.858;2023-06-05T13:49:30;5.43;;;4.43;;
16822;SDS011;8528;49.976;11.858;2023-06-05T13:51:57;8.37;;;4.50;;
16822;SDS011;8528;49.976;11.858;2023-06-05T13:54:24;4.77;;;3.87;;
16822;SDS011;8528;49.976;11.858;2023-06-05T13:56:51;6.50;;;4.30;;
16822;SDS011;8528;49.976;11.858;2023-06-05T13:59:18;6.13;;;4.37;;
16822;SDS011;8528;49.976;11.858;2023-06-05T14:01:45;5.97;;;4.23;;
16822;SDS011;8528;49.976;11.858;2023-06-05T14:04:12;7.80;;;4.17;;
16822;SDS011;8528;49.976;11.858;2023-06-05T14:06:41;6.77;;;4.63;;
16822;SDS011;8528;49.976;11.858;2023-06-05T14:09:08;4.73;;;4.20;;
16822;SDS011;8528;49.976;11.858;2023-06-05T14:11:35;6.10;;;4.17;;
16822;SDS011;8528;49.976;11.858;2023-06-05T14:14:03;6.43;;;3.97;;
16822;SDS011;8528;49.976;11.858;2023-06-05T14:16:30;5.60;;;4.13;;
16822;SDS011;8528;49.976;11.858;2023-06-05T14:18:58;8.20;;;4.17;;
16822;SDS011;8528;49.976;11.858;2023-06-05T14:21:25;8.67;;;4.23;;
16822;SDS011;8528;49.976;11.858;2023-06-05T14:23:52;4.67;;;4.17;;
16822;SDS011;8528;49.976;11.858;2023-06-05T14:26:19;5.40;;;4.00;;
16822;SDS011;8528;49.976;11.858;2023-06-05T14:28:48;5.37;;;3.70;;
16822;SDS011;8528;49.976;11.858;2023-06-05T14:31:14;5.77;;;4.50;;
16822;SDS011;8528;49.976;11.858;2023-06-05T14:33:41;11.33;;;5.47;;
16822;SDS011;8528;49.976;11.858;2023-06-05T14:36:08;5.33;;;4.20;;
16822;SDS011;8528;49.976;11.858;2023-06-05T14:38:36;5.00;;;4.50;;
16822;SDS011;8528;49.976;11.858;2023-06-05T14:41:03;18.40;;;6.00;;
16822;SDS011;8528;49.976;11.858;2023-06-05T14:43:30;5.23;;;4.10;;
16822;SDS011;8528;49.976;11.858;2023-06-05T14:45:56;6.90;;;5.20;;
16822;SDS011;8528;49.976;11.858;2023-06-05T14:48:29;5.10;;;3.93;;
16822;SDS011;8528;49.976;11.858;2023-06-05T14:50:57;5.63;;;4.17;;
16822;SDS011;8528;49.976;11.858;2023-06-05T14:53:24;5.30;;;4.13;;
16822;SDS011;8528;49.976;11.858;2023-06-05T14:55:51;6.20;;;4.87;;
16822;SDS011;8528;49.976;11.858;2023-06-05T14:58:17;5.80;;;4.10;;
16822;SDS011;8528;49.976;11.858;2023-06-05T15:00:47;6.40;;;4.17;;
16822;SDS011;8528;49.976;11.858;2023-06-05T15:03:21;4.33;;;3.90;;
16822;SDS011;8528;49.976;11.858;2023-06-05T15:05:48;6.03;;;4.70;;
16822;SDS011;8528;49.976;11.858;2023-06-05T15:08:15;4.83;;;4.33;;
16822;SDS011;8528;49.976;11.858;2023-06-05T15:10:42;8.00;;;4.93;;
16822;SDS011;8528;49.976;11.858;2023-06-05T15:13:08;6.03;;;4.40;;
16822;SDS011;8528;49.976;11.858;2023-06-05T15:15:36;4.57;;;3.83;;
16822;SDS011;8528;49.976;11.858;2023-06-05T15:18:03;6.83;;;4.17;;
16822;SDS011;8528;49.976;11.858;2023-06-05T15:20:30;5.70;;;4.70;;
16822;SDS011;8528;49.976;11.858;2023-06-05T15:22:57;6.30;;;4.37;;
16822;SDS011;8528;49.976;11.858;2023-06-05T15:25:41;5.07;;;4.40;;
16822;SDS011;8528;49.976;11.858;2023-06-05T15:28:08;6.17;;;4.47;;
16822;SDS011;8528;49.976;11.858;2023-06-05T15:30:35;5.07;;;4.30;;
16822;SDS011;8528;49.976;11.858;2023-06-05T15:33:02;7.60;;;4.43;;
16822;SDS011;8528;49.976;11.858;2023-06-05T15:35:29;7.57;;;4.73;;
16822;SDS011;8528;49.976;11.858;2023-06-05T15:37:56;7.17;;;4.90;;
16822;SDS011;8528;49.976;11.858;2023-06-05T15:40:23;5.07;;;4.57;;
16822;SDS011;8528;49.976;11.858;2023-06-05T15:43:04;5.13;;;4.50;;
16822;SDS011;8528;49.976;11.858;2023-06-05T15:45:33;6.30;;;4.87;;
16822;SDS011;8528;49.976;11.858;2023-06-05T15:48:01;6.70;;;4.77;;
16822;SDS011;8528;49.976;11.858;2023-06-05T15:50:29;5.27;;;4.20;;
16822;SDS011;8528;49.976;11.858;2023-06-05T15:52:56;5.97;;;4.63;;
16822;SDS011;8528;49.976;11.858;2023-06-05T15:55:23;6.27;;;4.97;;
16822;SDS011;8528;49.976;11.858;2023-06-05T15:57:51;7.57;;;5.30;;
16822;SDS011;8528;49.976;11.858;2023-06-05T16:00:18;5.63;;;4.50;;
16822;SDS011;8528;49.976;11.858;2023-06-05T16:02:47;5.57;;;4.60;;
16822;SDS011;8528;49.976;11.858;2023-06-05T16:05:14;6.90;;;4.87;;